createdAt,value
2022-10-21T00:01:04.993Z,1011.15
2022-10-21T00:02:04.982Z,1011.16
2022-10-21T00:04:08.974Z,1011.05
2022-10-21T00:05:08.948Z,1010.95
2022-10-21T00:07:12.950Z,1011.20
2022-10-21T00:08:12.939Z,1011.27
2022-10-21T00:10:16.921Z,1011.17
2022-10-21T00:11:16.903Z,1011.11
2022-10-21T00:13:20.894Z,1011.11
2022-10-21T00:14:20.882Z,1011.09
2022-10-21T00:16:24.850Z,1010.94
2022-10-21T00:17:24.836Z,1010.87
2022-10-21T00:19:28.824Z,1011.12
2022-10-21T00:20:28.810Z,1011.22
2022-10-21T00:22:32.794Z,1011.31
2022-10-21T00:23:32.776Z,1011.39
2022-10-21T00:25:25.676Z,1011.30
2022-10-21T00:26:25.665Z,1011.28
2022-10-21T00:28:29.642Z,1011.22
2022-10-21T00:29:29.628Z,1011.23
2022-10-21T00:31:33.620Z,1011.36
2022-10-21T00:32:33.607Z,1011.36
2022-10-21T00:34:37.598Z,1011.41
2022-10-21T00:35:37.580Z,1011.42
2022-10-21T00:37:41.579Z,1011.42
2022-10-21T00:38:41.564Z,1011.42
2022-10-21T00:40:45.537Z,1011.37
2022-10-21T00:41:45.523Z,1011.34
2022-10-21T00:43:38.622Z,1011.40
2022-10-21T00:44:38.603Z,1011.39
2022-10-21T00:46:31.703Z,1011.38
2022-10-21T00:47:31.682Z,1011.39
2022-10-21T00:49:24.773Z,1011.33
2022-10-21T00:50:24.760Z,1011.32
2022-10-21T00:52:28.738Z,1011.23
2022-10-21T00:53:28.716Z,1011.20
2022-10-21T00:55:21.629Z,1011.18
2022-10-21T00:56:21.617Z,1011.21
2022-10-21T00:58:14.717Z,1011.26
2022-10-21T00:59:14.699Z,1011.18
2022-10-21T01:01:21.365Z,1011.14
2022-10-21T01:02:18.659Z,1011.10
2022-10-21T01:04:22.646Z,1010.98
2022-10-21T01:05:22.631Z,1010.94
2022-10-21T01:07:26.614Z,1010.93
2022-10-21T01:08:26.592Z,1010.89
2022-10-21T01:10:30.573Z,1010.83
2022-10-21T01:11:30.559Z,1010.74
2022-10-21T01:13:34.585Z,1010.78
2022-10-21T01:14:34.562Z,1010.76
2022-10-21T01:16:38.568Z,1010.83
2022-10-21T01:17:44.904Z,1010.80
2022-10-21T01:19:42.524Z,1010.88
2022-10-21T01:20:42.510Z,1010.82
2022-10-21T01:22:46.487Z,1010.88
2022-10-21T01:23:46.473Z,1010.89
2022-10-21T01:25:50.476Z,1010.87
2022-10-21T01:26:50.464Z,1010.90
2022-10-21T01:28:54.482Z,1010.81
2022-10-21T01:29:54.461Z,1010.87
2022-10-21T01:31:58.441Z,1010.85
2022-10-21T01:32:58.483Z,1010.87
2022-10-21T01:34:51.318Z,1010.82
2022-10-21T01:35:51.304Z,1010.76
2022-10-21T01:37:55.311Z,1010.70
2022-10-21T01:38:55.286Z,1010.68
2022-10-21T01:40:59.252Z,1010.65
2022-10-21T01:41:59.279Z,1010.59
2022-10-21T01:44:03.227Z,1010.66
2022-10-21T01:45:03.208Z,1010.67
2022-10-21T01:47:07.190Z,1010.72
2022-10-21T01:48:07.175Z,1010.69
2022-10-21T01:50:11.144Z,1010.65
2022-10-21T01:51:11.245Z,1010.65
2022-10-21T01:53:15.124Z,1010.54
2022-10-21T01:54:15.100Z,1010.57
2022-10-21T01:56:19.104Z,1010.54
2022-10-21T01:57:19.085Z,1010.53
2022-10-21T01:59:23.058Z,1010.50
2022-10-21T02:00:23.045Z,1010.46
2022-10-21T02:02:27.033Z,1010.38
2022-10-21T02:03:27.014Z,1010.31
2022-10-21T02:05:19.954Z,1010.26
2022-10-21T02:06:19.941Z,1010.25
2022-10-21T02:08:23.917Z,1010.19
2022-10-21T02:09:23.925Z,1010.17
2022-10-21T02:11:27.904Z,1010.11
2022-10-21T02:12:27.883Z,1010.08
2022-10-21T02:14:31.878Z,1010.05
2022-10-21T02:15:31.867Z,1009.99
2022-10-21T02:17:24.966Z,1010.02
2022-10-21T02:18:24.948Z,1009.99
2022-10-21T02:20:18.048Z,1009.93
2022-10-21T02:21:18.031Z,1009.85
2022-10-21T02:23:22.036Z,1009.78
2022-10-21T02:24:22.018Z,1009.75
2022-10-21T02:26:15.116Z,1009.73
2022-10-21T02:27:15.097Z,1009.75
2022-10-21T02:29:19.095Z,1009.81
2022-10-21T02:30:19.078Z,1009.85
2022-10-21T02:32:23.059Z,1009.93
2022-10-21T02:33:23.042Z,1009.93
2022-10-21T02:35:15.943Z,1009.95
2022-10-21T02:36:15.929Z,1010.02
2022-10-21T02:38:19.910Z,1009.95
2022-10-21T02:39:19.889Z,1009.98
2022-10-21T02:41:23.867Z,1009.85
2022-10-21T02:42:23.850Z,1009.88
2022-10-21T02:44:16.945Z,1009.88
2022-10-21T02:45:16.933Z,1009.87
2022-10-21T02:47:20.911Z,1009.90
2022-10-21T02:48:20.894Z,1009.86
2022-10-21T02:50:24.900Z,1009.76
2022-10-21T02:51:24.886Z,1009.71
2022-10-21T02:53:28.921Z,1009.59
2022-10-21T02:54:28.870Z,1009.58
2022-10-21T02:56:32.861Z,1009.56
2022-10-21T02:57:32.824Z,1009.56
2022-10-21T02:59:36.809Z,1009.48
2022-10-21T03:00:36.795Z,1009.44
2022-10-21T03:02:29.895Z,1009.35
2022-10-21T03:03:29.885Z,1009.34
2022-10-21T03:05:22.849Z,1009.43
2022-10-21T03:06:22.758Z,1009.44
2022-10-21T03:08:26.744Z,1009.51
2022-10-21T03:09:26.726Z,1009.52
2022-10-21T03:11:30.710Z,1009.46
2022-10-21T03:12:30.690Z,1009.48
2022-10-21T03:14:34.682Z,1009.36
2022-10-21T03:15:34.678Z,1009.41
2022-10-21T03:17:27.770Z,1009.43
2022-10-21T03:18:27.754Z,1009.48
2022-10-21T03:20:31.725Z,1009.39
2022-10-21T03:21:31.712Z,1009.36
2022-10-21T03:23:35.689Z,1009.34
2022-10-21T03:24:35.671Z,1009.36
2022-10-21T03:26:39.648Z,1009.40
2022-10-21T03:27:39.627Z,1009.40
2022-10-21T03:29:43.623Z,1009.42
2022-10-21T03:30:43.608Z,1009.40
2022-10-21T03:32:36.990Z,1009.43
2022-10-21T03:33:36.689Z,1009.38
2022-10-21T03:35:29.601Z,1009.40
2022-10-21T03:36:29.588Z,1009.41
2022-10-21T03:38:22.686Z,1009.46
2022-10-21T03:39:22.669Z,1009.49
2022-10-21T03:41:26.662Z,1009.42
2022-10-21T03:42:26.645Z,1009.38
2022-10-21T03:44:30.622Z,1009.33
2022-10-21T03:45:30.608Z,1009.28
2022-10-21T03:47:34.584Z,1009.28
2022-10-21T03:48:34.565Z,1009.30
2022-10-21T03:50:38.761Z,1009.33
2022-10-21T03:51:38.740Z,1009.33
2022-10-21T03:53:43.790Z,1009.31
2022-10-21T03:54:42.708Z,1009.32
2022-10-21T03:56:46.707Z,1009.35
2022-10-21T03:57:46.689Z,1009.33
2022-10-21T03:59:50.674Z,1009.26
2022-10-21T04:00:50.662Z,1009.22
2022-10-21T04:02:43.776Z,1009.12
2022-10-21T04:03:43.751Z,1009.14
2022-10-21T04:05:36.858Z,1009.19
2022-10-21T04:06:36.843Z,1009.15
2022-10-21T04:08:40.865Z,1009.19
2022-10-21T04:09:40.816Z,1009.23
2022-10-21T04:11:44.768Z,1009.20
2022-10-21T04:12:44.753Z,1009.18
2022-10-21T04:14:37.666Z,1009.09
2022-10-21T04:15:37.654Z,1009.09
2022-10-21T04:17:41.641Z,1009.03
2022-10-21T04:18:41.622Z,1009.02
2022-10-21T04:20:45.623Z,1008.94
2022-10-21T04:21:45.604Z,1008.90
2022-10-21T04:23:49.590Z,1008.85
2022-10-21T04:24:49.585Z,1008.78
2022-10-21T04:26:53.591Z,1008.72
2022-10-21T04:27:53.551Z,1008.69
2022-10-21T04:29:57.539Z,1008.64
2022-10-21T04:30:57.528Z,1008.61
2022-10-21T04:32:50.618Z,1008.57
2022-10-21T04:33:50.604Z,1008.58
2022-10-21T04:35:54.590Z,1008.55
2022-10-21T04:36:54.570Z,1008.48
2022-10-21T04:38:47.660Z,1008.41
2022-10-21T04:39:47.647Z,1008.41
2022-10-21T04:41:51.624Z,1008.51
2022-10-21T04:42:51.602Z,1008.52
2022-10-21T04:44:44.507Z,1008.50
2022-10-21T04:45:44.491Z,1008.50
2022-10-21T04:47:48.475Z,1008.50
2022-10-21T04:48:48.458Z,1008.49
2022-10-21T04:50:52.489Z,1008.55
2022-10-21T04:51:52.463Z,1008.51
2022-10-21T04:52:52.463Z,1008.53
2022-10-21T04:53:52.441Z,1008.54
2022-10-21T04:54:52.436Z,1008.60
2022-10-21T04:55:52.427Z,1008.55
2022-10-21T04:56:52.447Z,1008.51
2022-10-21T04:57:52.409Z,1008.47
2022-10-21T04:58:52.400Z,1008.50
2022-10-21T04:59:52.393Z,1008.48
2022-10-21T05:00:52.437Z,1008.48
2022-10-21T05:01:52.519Z,1008.49
2022-10-21T05:02:52.368Z,1008.47
2022-10-21T05:03:52.357Z,1008.44
2022-10-21T05:04:52.349Z,1008.40
2022-10-21T05:05:52.342Z,1008.35
2022-10-21T05:06:52.408Z,1008.34
2022-10-21T05:07:52.326Z,1008.34
2022-10-21T05:08:52.357Z,1008.25
2022-10-21T05:09:52.306Z,1008.25
2022-10-21T05:10:52.299Z,1008.24
2022-10-21T05:11:52.291Z,1008.24
2022-10-21T05:12:52.283Z,1008.23
2022-10-21T05:13:52.283Z,1008.21
2022-10-21T05:14:59.429Z,1008.18
2022-10-21T05:16:56.255Z,1008.18
2022-10-21T05:17:56.233Z,1008.16
2022-10-21T05:20:00.225Z,1008.16
2022-10-21T05:21:00.205Z,1008.08
2022-10-21T05:22:53.336Z,1008.09
2022-10-21T05:23:53.322Z,1008.11
2022-10-21T05:25:46.242Z,1008.19
2022-10-21T05:26:46.224Z,1008.18
2022-10-21T05:28:50.246Z,1008.17
2022-10-21T05:29:50.228Z,1008.15
2022-10-21T05:31:43.151Z,1008.08
2022-10-21T05:32:43.138Z,1008.04
2022-10-21T05:34:47.126Z,1008.02
2022-10-21T05:35:47.106Z,1008.09
2022-10-21T05:37:51.124Z,1008.03
2022-10-21T05:38:51.094Z,1008.00
2022-10-21T05:39:51.082Z,1008.00
2022-10-21T05:40:51.073Z,1007.97
2022-10-21T05:41:51.067Z,1007.93
2022-10-21T05:42:51.058Z,1007.89
2022-10-21T05:43:51.045Z,1007.93
2022-10-21T05:44:51.040Z,1007.94
2022-10-21T05:45:51.031Z,1007.91
2022-10-21T05:46:51.023Z,1007.92
2022-10-21T05:47:51.015Z,1007.90
2022-10-21T05:48:51.009Z,1007.89
2022-10-21T05:49:50.998Z,1007.90
2022-10-21T05:50:50.989Z,1007.90
2022-10-21T05:51:50.981Z,1007.89
2022-10-21T05:52:50.972Z,1007.88
2022-10-21T05:53:50.964Z,1007.90
2022-10-21T05:54:50.955Z,1007.90
2022-10-21T05:55:50.946Z,1007.90
2022-10-21T05:56:50.940Z,1007.86
2022-10-21T05:58:50.922Z,1007.81
2022-10-21T05:59:50.914Z,1007.82
2022-10-21T06:00:50.973Z,1007.80
2022-10-21T06:01:50.896Z,1007.82
2022-10-21T06:02:50.888Z,1007.88
2022-10-21T06:03:50.878Z,1007.91
2022-10-21T06:04:50.872Z,1007.94
2022-10-21T06:05:50.863Z,1007.92
2022-10-21T06:06:50.885Z,1007.94
2022-10-21T06:07:50.847Z,1007.86
2022-10-21T06:08:50.900Z,1007.83
2022-10-21T06:09:50.830Z,1007.81
2022-10-21T06:10:50.819Z,1007.84
2022-10-21T06:11:50.814Z,1007.82
2022-10-21T06:12:50.804Z,1007.82
2022-10-21T06:13:50.803Z,1007.76
2022-10-21T06:14:50.786Z,1007.73
2022-10-21T06:15:51.201Z,1007.77
2022-10-21T06:16:50.772Z,1007.78
2022-10-21T06:17:50.762Z,1007.84
2022-10-21T06:18:50.753Z,1007.85
2022-10-21T06:19:51.135Z,1007.89
2022-10-21T06:20:50.736Z,1007.87
2022-10-21T06:21:50.728Z,1007.84
2022-10-21T06:22:50.719Z,1007.85
2022-10-21T06:23:50.714Z,1007.87
2022-10-21T06:24:50.700Z,1007.86
2022-10-21T06:25:50.692Z,1007.86
2022-10-21T06:26:50.693Z,1007.84
2022-10-21T06:27:50.679Z,1007.84
2022-10-21T06:28:50.670Z,1007.86
2022-10-21T06:29:50.661Z,1007.85
2022-10-21T06:30:50.650Z,1007.91
2022-10-21T06:31:50.655Z,1007.97
2022-10-21T06:32:50.637Z,1007.96
2022-10-21T06:33:50.627Z,1007.94
2022-10-21T06:34:50.628Z,1007.93
2022-10-21T06:35:50.611Z,1007.93
2022-10-21T06:36:50.606Z,1007.96
2022-10-21T06:37:50.594Z,1007.94
2022-10-21T06:38:50.586Z,1007.97
2022-10-21T06:39:50.603Z,1007.99
2022-10-21T06:40:50.567Z,1008.02
2022-10-21T06:41:50.560Z,1008.08
2022-10-21T06:42:50.552Z,1008.09
2022-10-21T06:43:50.543Z,1008.10
2022-10-21T06:44:50.537Z,1008.07
2022-10-21T06:45:50.527Z,1008.06
2022-10-21T06:46:50.519Z,1008.10
2022-10-21T06:47:50.512Z,1008.11
2022-10-21T06:48:50.501Z,1008.08
2022-10-21T06:49:50.495Z,1008.07
2022-10-21T06:50:50.485Z,1008.11
2022-10-21T06:51:50.478Z,1008.05
2022-10-21T06:52:50.470Z,1008.06
2022-10-21T06:53:50.462Z,1008.09
2022-10-21T06:54:50.455Z,1008.08
2022-10-21T06:55:50.448Z,1008.08
2022-10-21T06:56:50.438Z,1008.02
2022-10-21T06:57:50.429Z,1008.02
2022-10-21T06:58:50.420Z,1007.99
2022-10-21T06:59:50.414Z,1007.96
2022-10-21T07:00:50.405Z,1007.95
2022-10-21T07:02:05.854Z,1007.95
2022-10-21T07:02:50.390Z,1007.97
2022-10-21T07:03:50.382Z,1007.99
2022-10-21T07:04:50.379Z,1007.96
2022-10-21T07:05:50.367Z,1007.94
2022-10-21T07:06:50.357Z,1007.94
2022-10-21T07:07:50.348Z,1007.91
2022-10-21T07:08:58.016Z,1007.92
2022-10-21T07:09:50.397Z,1007.92
2022-10-21T07:10:50.323Z,1007.98
2022-10-21T07:11:50.317Z,1007.99
2022-10-21T07:12:50.305Z,1008.04
2022-10-21T07:13:50.300Z,1008.01
2022-10-21T07:14:50.292Z,1008.01
2022-10-21T07:15:50.313Z,1008.00
2022-10-21T07:16:50.279Z,1008.02
2022-10-21T07:17:50.270Z,1008.03
2022-10-21T07:18:50.263Z,1008.07
2022-10-21T07:19:50.385Z,1008.08
2022-10-21T07:20:50.244Z,1008.06
2022-10-21T07:21:50.238Z,1008.12
2022-10-21T07:22:50.231Z,1008.17
2022-10-21T07:23:50.223Z,1008.20
2022-10-21T07:24:50.252Z,1008.24
2022-10-21T07:25:50.211Z,1008.21
2022-10-21T07:26:50.203Z,1008.24
2022-10-21T07:27:50.423Z,1008.23
2022-10-21T07:28:50.182Z,1008.23
2022-10-21T07:29:50.179Z,1008.30
2022-10-21T07:30:50.167Z,1008.30
2022-10-21T07:31:50.158Z,1008.34
2022-10-21T07:32:50.153Z,1008.32
2022-10-21T07:33:50.241Z,1008.31
2022-10-21T07:34:50.135Z,1008.35
2022-10-21T07:35:50.136Z,1008.32
2022-10-21T07:36:50.120Z,1008.27
2022-10-21T07:37:50.111Z,1008.23
2022-10-21T07:38:50.105Z,1008.23
2022-10-21T07:39:50.100Z,1008.18
2022-10-21T07:40:50.088Z,1008.25
2022-10-21T07:41:50.083Z,1008.25
2022-10-21T07:42:50.076Z,1008.21
2022-10-21T07:43:50.067Z,1008.18
2022-10-21T07:44:50.059Z,1008.19
2022-10-21T07:45:50.055Z,1008.19
2022-10-21T07:46:50.046Z,1008.25
2022-10-21T07:47:50.038Z,1008.26
2022-10-21T07:48:50.025Z,1008.21
2022-10-21T07:49:50.023Z,1008.22
2022-10-21T07:50:50.015Z,1008.15
2022-10-21T07:51:50.009Z,1008.15
2022-10-21T07:52:56.103Z,1008.14
2022-10-21T07:53:49.992Z,1008.17
2022-10-21T07:54:49.991Z,1008.21
2022-10-21T07:55:49.977Z,1008.19
2022-10-21T07:56:49.969Z,1008.26
2022-10-21T07:57:49.963Z,1008.23
2022-10-21T07:58:49.957Z,1008.23
2022-10-21T07:59:49.950Z,1008.21
2022-10-21T08:00:49.959Z,1008.24
2022-10-21T08:02:49.925Z,1008.18
2022-10-21T08:03:49.919Z,1008.17
2022-10-21T08:04:49.910Z,1008.18
2022-10-21T08:05:49.906Z,1008.13
2022-10-21T08:06:49.894Z,1008.20
2022-10-21T08:07:49.891Z,1008.16
2022-10-21T08:08:50.021Z,1008.13
2022-10-21T08:09:49.889Z,1008.16
2022-10-21T08:11:49.858Z,1008.20
2022-10-21T08:12:49.850Z,1008.22
2022-10-21T08:13:49.844Z,1008.22
2022-10-21T08:14:49.841Z,1008.22
2022-10-21T08:15:49.833Z,1008.20
2022-10-21T08:16:49.820Z,1008.19
2022-10-21T08:17:49.814Z,1008.19
2022-10-21T08:18:49.810Z,1008.17
2022-10-21T08:19:49.861Z,1008.17
2022-10-21T08:20:49.790Z,1008.21
2022-10-21T08:21:49.786Z,1008.15
2022-10-21T08:22:49.778Z,1008.11
2022-10-21T08:23:49.775Z,1008.07
2022-10-21T08:24:49.766Z,1008.06
2022-10-21T08:25:49.762Z,1008.04
2022-10-21T08:26:49.754Z,1008.05
2022-10-21T08:27:49.744Z,1008.03
2022-10-21T08:28:49.808Z,1008.04
2022-10-21T08:29:49.730Z,1008.04
2022-10-21T08:30:49.727Z,1008.03
2022-10-21T08:31:49.714Z,1008.06
2022-10-21T08:32:49.708Z,1008.08
2022-10-21T08:33:49.701Z,1008.07
2022-10-21T08:34:49.695Z,1008.10
2022-10-21T08:35:49.695Z,1008.07
2022-10-21T08:36:49.681Z,1008.10
2022-10-21T08:37:49.674Z,1008.03
2022-10-21T08:38:49.677Z,1008.01
2022-10-21T08:39:49.660Z,1007.96
2022-10-21T08:40:51.142Z,1007.94
2022-10-21T08:41:49.642Z,1007.92
2022-10-21T08:42:49.643Z,1007.91
2022-10-21T08:43:49.644Z,1007.83
2022-10-21T08:44:49.626Z,1007.82
2022-10-21T08:45:49.617Z,1007.82
2022-10-21T08:46:49.617Z,1007.80
2022-10-21T08:47:49.605Z,1007.83
2022-10-21T08:48:49.597Z,1007.75
2022-10-21T08:49:49.589Z,1007.83
2022-10-21T08:50:49.586Z,1007.74
2022-10-21T08:51:49.602Z,1007.77
2022-10-21T08:52:49.570Z,1007.74
2022-10-21T08:53:49.563Z,1007.72
2022-10-21T08:54:49.560Z,1007.66
2022-10-21T08:55:49.552Z,1007.70
2022-10-21T08:56:49.543Z,1007.64
2022-10-21T08:57:49.536Z,1007.66
2022-10-21T08:58:49.530Z,1007.69
2022-10-21T08:59:49.522Z,1007.65
2022-10-21T09:00:49.521Z,1007.67
2022-10-21T09:01:49.509Z,1007.66
2022-10-21T09:02:49.580Z,1007.66
2022-10-21T09:03:49.496Z,1007.71
2022-10-21T09:04:49.493Z,1007.69
2022-10-21T09:05:49.481Z,1007.68
2022-10-21T09:06:49.477Z,1007.70
2022-10-21T09:07:49.469Z,1007.69
2022-10-21T09:08:51.489Z,1007.72
2022-10-21T09:09:49.455Z,1007.66
2022-10-21T09:10:49.450Z,1007.64
2022-10-21T09:11:49.439Z,1007.59
2022-10-21T09:12:49.436Z,1007.60
2022-10-21T09:13:49.428Z,1007.63
2022-10-21T09:14:49.428Z,1007.58
2022-10-21T09:15:49.430Z,1007.57
2022-10-21T09:16:49.408Z,1007.56
2022-10-21T09:17:49.403Z,1007.55
2022-10-21T09:18:49.393Z,1007.56
2022-10-21T09:19:49.386Z,1007.54
2022-10-21T09:20:54.941Z,1007.53
2022-10-21T09:21:49.375Z,1007.51
2022-10-21T09:22:49.370Z,1007.45
2022-10-21T09:23:49.363Z,1007.43
2022-10-21T09:24:49.354Z,1007.40
2022-10-21T09:25:49.350Z,1007.41
2022-10-21T09:26:49.345Z,1007.38
2022-10-21T09:27:56.410Z,1007.44
2022-10-21T09:28:49.332Z,1007.43
2022-10-21T09:29:49.327Z,1007.42
2022-10-21T09:30:49.321Z,1007.41
2022-10-21T09:31:55.195Z,1007.42
2022-10-21T09:32:49.307Z,1007.44
2022-10-21T09:33:49.303Z,1007.39
2022-10-21T09:34:49.297Z,1007.39
2022-10-21T09:35:49.291Z,1007.40
2022-10-21T09:36:49.285Z,1007.40
2022-10-21T09:37:49.279Z,1007.43
2022-10-21T09:38:49.271Z,1007.39
2022-10-21T09:39:49.272Z,1007.36
2022-10-21T09:40:49.260Z,1007.35
2022-10-21T09:41:49.257Z,1007.39
2022-10-21T09:42:49.603Z,1007.43
2022-10-21T09:43:49.246Z,1007.43
2022-10-21T09:44:49.241Z,1007.44
2022-10-21T09:45:49.232Z,1007.38
2022-10-21T09:46:49.228Z,1007.37
2022-10-21T09:47:49.220Z,1007.33
2022-10-21T09:50:08.321Z,1007.32
2022-10-21T09:50:49.203Z,1007.30
2022-10-21T09:51:49.199Z,1007.30
2022-10-21T09:52:49.192Z,1007.33
2022-10-21T09:53:53.914Z,1007.39
2022-10-21T09:54:49.180Z,1007.45
2022-10-21T09:55:49.175Z,1007.42
2022-10-21T09:56:49.171Z,1007.43
2022-10-21T09:57:49.177Z,1007.43
2022-10-21T09:58:49.157Z,1007.43
2022-10-21T09:59:49.155Z,1007.45
2022-10-21T10:00:49.145Z,1007.41
2022-10-21T10:01:49.267Z,1007.35
2022-10-21T10:02:49.133Z,1007.37
2022-10-21T10:03:49.129Z,1007.42
2022-10-21T10:04:49.125Z,1007.41
2022-10-21T10:05:49.117Z,1007.41
2022-10-21T10:06:49.108Z,1007.40
2022-10-21T10:07:49.109Z,1007.39
2022-10-21T10:08:49.215Z,1007.41
2022-10-21T10:09:49.098Z,1007.41
2022-10-21T10:10:49.086Z,1007.38
2022-10-21T10:11:49.084Z,1007.44
2022-10-21T10:12:49.076Z,1007.40
2022-10-21T10:13:49.070Z,1007.34
2022-10-21T10:14:49.067Z,1007.36
2022-10-21T10:15:49.060Z,1007.30
2022-10-21T10:16:49.050Z,1007.29
2022-10-21T10:17:49.047Z,1007.26
2022-10-21T10:18:49.043Z,1007.28
2022-10-21T10:19:49.037Z,1007.26
2022-10-21T10:20:49.030Z,1007.25
2022-10-21T10:21:49.023Z,1007.24
2022-10-21T10:22:49.016Z,1007.20
2022-10-21T10:23:49.011Z,1007.25
2022-10-21T10:24:49.007Z,1007.23
2022-10-21T10:25:49.001Z,1007.22
2022-10-21T10:26:48.996Z,1007.20
2022-10-21T10:27:48.992Z,1007.13
2022-10-21T10:28:48.995Z,1007.15
2022-10-21T10:29:48.984Z,1007.10
2022-10-21T10:30:48.972Z,1007.12
2022-10-21T10:31:50.687Z,1007.10
2022-10-21T10:32:48.962Z,1007.13
2022-10-21T10:33:48.957Z,1007.05
2022-10-21T10:34:49.034Z,1007.02
2022-10-21T10:35:48.952Z,1007.04
2022-10-21T10:36:48.940Z,1007.07
2022-10-21T10:37:48.936Z,1007.06
2022-10-21T10:38:48.928Z,1006.99
2022-10-21T10:39:48.924Z,1006.99
2022-10-21T10:40:48.919Z,1007.02
2022-10-21T10:41:48.914Z,1007.01
2022-10-21T10:42:48.906Z,1007.04
2022-10-21T10:43:48.902Z,1007.02
2022-10-21T10:44:48.892Z,1006.98
2022-10-21T10:45:48.892Z,1006.96
2022-10-21T10:46:48.901Z,1006.99
2022-10-21T10:47:48.882Z,1006.96
2022-10-21T10:48:48.874Z,1006.95
2022-10-21T10:49:48.871Z,1006.94
2022-10-21T10:50:48.944Z,1006.90
2022-10-21T10:51:48.861Z,1006.90
2022-10-21T10:52:48.854Z,1006.87
2022-10-21T10:53:48.846Z,1006.89
2022-10-21T10:54:48.845Z,1006.90
2022-10-21T10:56:48.835Z,1006.86
2022-10-21T10:57:59.090Z,1006.87
2022-10-21T10:58:48.824Z,1006.83
2022-10-21T10:59:48.821Z,1006.81
2022-10-21T11:00:48.852Z,1006.79
2022-10-21T11:01:48.811Z,1006.76
2022-10-21T11:02:48.814Z,1006.72
2022-10-21T11:03:48.800Z,1006.74
2022-10-21T11:04:48.824Z,1006.72
2022-10-21T11:05:48.795Z,1006.69
2022-10-21T11:06:48.866Z,1006.69
2022-10-21T11:07:48.780Z,1006.66
2022-10-21T11:08:48.813Z,1006.65
2022-10-21T11:09:48.770Z,1006.65
2022-10-21T11:10:48.764Z,1006.65
2022-10-21T11:11:48.763Z,1006.66
2022-10-21T11:12:48.752Z,1006.64
2022-10-21T11:13:48.785Z,1006.59
2022-10-21T11:14:48.747Z,1006.61
2022-10-21T11:15:48.746Z,1006.59
2022-10-21T11:16:59.614Z,1006.60
2022-10-21T11:17:48.731Z,1006.61
2022-10-21T11:18:49.761Z,1006.63
2022-10-21T11:19:48.724Z,1006.61
2022-10-21T11:20:48.753Z,1006.57
2022-10-21T11:21:48.713Z,1006.53
2022-10-21T11:22:48.789Z,1006.55
2022-10-21T11:23:48.705Z,1006.55
2022-10-21T11:24:48.697Z,1006.57
2022-10-21T11:25:48.692Z,1006.53
2022-10-21T11:26:48.687Z,1006.56
2022-10-21T11:27:48.684Z,1006.52
2022-10-21T11:28:48.676Z,1006.56
2022-10-21T11:29:48.674Z,1006.57
2022-10-21T11:30:48.668Z,1006.53
2022-10-21T11:32:10.148Z,1006.53
2022-10-21T11:32:48.663Z,1006.49
2022-10-21T11:33:48.659Z,1006.48
2022-10-21T11:34:48.650Z,1006.56
2022-10-21T11:35:48.645Z,1006.48
2022-10-21T11:36:48.642Z,1006.54
2022-10-21T11:37:48.638Z,1006.51
2022-10-21T11:38:48.715Z,1006.55
2022-10-21T11:39:48.629Z,1006.59
2022-10-21T11:40:48.624Z,1006.57
2022-10-21T11:41:48.622Z,1006.52
2022-10-21T11:42:48.615Z,1006.51
2022-10-21T11:43:48.612Z,1006.47
2022-10-21T11:44:48.618Z,1006.46
2022-10-21T11:45:48.597Z,1006.46
2022-10-21T11:46:48.597Z,1006.52
2022-10-21T11:47:48.599Z,1006.52
2022-10-21T11:48:48.589Z,1006.50
2022-10-21T11:49:48.586Z,1006.53
2022-10-21T11:50:48.605Z,1006.51
2022-10-21T11:51:48.578Z,1006.53
2022-10-21T11:52:57.266Z,1006.52
2022-10-21T11:55:06.918Z,1006.49
2022-10-21T11:55:52.544Z,1006.52
2022-10-21T11:57:56.520Z,1006.52
2022-10-21T11:58:56.514Z,1006.51
2022-10-21T12:01:00.515Z,1006.51
2022-10-21T12:02:00.569Z,1006.50
2022-10-21T12:04:05.364Z,1006.53
2022-10-21T12:05:04.698Z,1006.49
2022-10-21T12:07:11.258Z,1006.50
2022-10-21T12:08:08.691Z,1006.48
2022-10-21T12:09:08.682Z,1006.51
2022-10-21T12:10:08.764Z,1006.51
2022-10-21T12:11:08.668Z,1006.49
2022-10-21T12:12:08.671Z,1006.51
2022-10-21T12:13:08.668Z,1006.48
2022-10-21T12:14:08.661Z,1006.50
2022-10-21T12:15:08.659Z,1006.49
2022-10-21T12:16:08.677Z,1006.51
2022-10-21T12:17:08.659Z,1006.51
2022-10-21T12:18:08.640Z,1006.58
2022-10-21T12:19:08.643Z,1006.54
2022-10-21T12:20:08.653Z,1006.53
2022-10-21T12:21:08.640Z,1006.53
2022-10-21T12:22:08.627Z,1006.58
2022-10-21T12:23:08.633Z,1006.56
2022-10-21T12:24:08.681Z,1006.58
2022-10-21T12:25:08.616Z,1006.52
2022-10-21T12:26:08.703Z,1006.55
2022-10-21T12:27:08.645Z,1006.50
2022-10-21T12:28:08.603Z,1006.47
2022-10-21T12:29:08.607Z,1006.50
2022-10-21T12:30:08.605Z,1006.48
2022-10-21T12:31:08.592Z,1006.46
2022-10-21T12:32:08.595Z,1006.39
2022-10-21T12:33:08.605Z,1006.40
2022-10-21T12:34:08.577Z,1006.42
2022-10-21T12:35:08.580Z,1006.43
2022-10-21T12:36:08.584Z,1006.44
2022-10-21T12:37:08.566Z,1006.44
2022-10-21T12:38:08.565Z,1006.47
2022-10-21T12:39:08.558Z,1006.49
2022-10-21T12:40:08.564Z,1006.47
2022-10-21T12:41:08.557Z,1006.47
2022-10-21T12:42:08.559Z,1006.50
2022-10-21T12:43:08.543Z,1006.50
2022-10-21T12:44:08.540Z,1006.48
2022-10-21T12:45:08.539Z,1006.47
2022-10-21T12:46:08.532Z,1006.44
2022-10-21T12:47:08.530Z,1006.50
2022-10-21T12:48:08.533Z,1006.45
2022-10-21T12:49:08.653Z,1006.45
2022-10-21T12:50:08.517Z,1006.45
2022-10-21T12:51:08.522Z,1006.47
2022-10-21T12:52:08.507Z,1006.50
2022-10-21T12:53:08.507Z,1006.47
2022-10-21T12:54:08.507Z,1006.44
2022-10-21T12:55:08.494Z,1006.42
2022-10-21T12:56:08.493Z,1006.40
2022-10-21T12:57:08.490Z,1006.42
2022-10-21T12:58:08.486Z,1006.43
2022-10-21T12:59:08.482Z,1006.44
2022-10-21T13:00:08.479Z,1006.41
2022-10-21T13:01:08.510Z,1006.41
2022-10-21T13:02:08.470Z,1006.38
2022-10-21T13:03:08.471Z,1006.43
2022-10-21T13:04:08.463Z,1006.48
2022-10-21T13:05:08.455Z,1006.48
2022-10-21T13:06:08.455Z,1006.43
2022-10-21T13:07:08.449Z,1006.40
2022-10-21T13:08:08.451Z,1006.39
2022-10-21T13:09:08.549Z,1006.36
2022-10-21T13:10:08.445Z,1006.38
2022-10-21T13:11:08.429Z,1006.30
2022-10-21T13:12:08.432Z,1006.27
2022-10-21T13:13:08.422Z,1006.28
2022-10-21T13:14:08.420Z,1006.25
2022-10-21T13:15:08.413Z,1006.25
2022-10-21T13:16:08.413Z,1006.25
2022-10-21T13:17:08.406Z,1006.24
2022-10-21T13:18:08.405Z,1006.21
2022-10-21T13:19:08.403Z,1006.19
2022-10-21T13:20:08.392Z,1006.18
2022-10-21T13:21:08.389Z,1006.18
2022-10-21T13:22:08.382Z,1006.19
2022-10-21T13:23:08.387Z,1006.17
2022-10-21T13:24:08.377Z,1006.18
2022-10-21T13:25:08.380Z,1006.19
2022-10-21T13:26:08.372Z,1006.14
2022-10-21T13:27:08.368Z,1006.10
2022-10-21T13:28:08.358Z,1006.15
2022-10-21T13:29:10.334Z,1006.11
2022-10-21T13:30:08.433Z,1006.11
2022-10-21T13:31:08.344Z,1006.13
2022-10-21T13:32:08.343Z,1006.10
2022-10-21T13:33:08.338Z,1006.10
2022-10-21T13:34:08.342Z,1006.12
2022-10-21T13:35:08.335Z,1006.14
2022-10-21T13:36:08.326Z,1006.09
2022-10-21T13:37:08.336Z,1006.09
2022-10-21T13:38:08.316Z,1006.14
2022-10-21T13:39:08.312Z,1006.13
2022-10-21T13:40:08.316Z,1006.13
2022-10-21T13:41:08.314Z,1006.11
2022-10-21T13:42:09.881Z,1006.15
2022-10-21T13:43:08.306Z,1006.19
2022-10-21T13:44:08.299Z,1006.17
2022-10-21T13:45:08.288Z,1006.18
2022-10-21T13:46:08.352Z,1006.22
2022-10-21T13:47:08.274Z,1006.23
2022-10-21T13:48:08.272Z,1006.24
2022-10-21T13:49:08.269Z,1006.22
2022-10-21T13:50:08.270Z,1006.25
2022-10-21T13:51:08.260Z,1006.19
2022-10-21T13:52:08.314Z,1006.16
2022-10-21T13:53:08.603Z,1006.19
2022-10-21T13:54:08.845Z,1006.19
2022-10-21T13:55:08.871Z,1006.22
2022-10-21T13:56:08.976Z,1006.18
2022-10-21T13:57:08.516Z,1006.22
2022-10-21T13:58:08.540Z,1006.18
2022-10-21T13:59:08.530Z,1006.18
2022-10-21T14:00:08.670Z,1006.15
2022-10-21T14:01:08.949Z,1006.14
2022-10-21T14:02:08.568Z,1006.11